sensor_id;sensor_type;location;lat;lon;timestamp;P1;durP1;ratioP1;P2;durP2;ratioP2
5171;SDS011;2605;49.770;9.868;2023-07-24T00:01:02;6.40;;;4.40;;
5171;SDS011;2605;49.770;9.868;2023-07-24T00:03:28;11.23;;;4.20;;
5171;SDS011;2605;49.770;9.868;2023-07-24T00:05:57;6.70;;;3.70;;
5171;SDS011;2605;49.770;9.868;2023-07-24T00:08:23;5.13;;;3.53;;
5171;SDS011;2605;49.770;9.868;2023-07-24T00:10:49;5.60;;;4.13;;
5171;SDS011;2605;49.770;9.868;2023-07-24T00:13:14;6.00;;;4.90;;
5171;SDS011;2605;49.770;9.868;2023-07-24T00:15:40;4.30;;;3.90;;
5171;SDS011;2605;49.770;9.868;2023-07-24T00:18:05;4.57;;;4.17;;
5171;SDS011;2605;49.770;9.868;2023-07-24T00:20:31;4.83;;;4.33;;
5171;SDS011;2605;49.770;9.868;2023-07-24T00:22:56;7.33;;;4.40;;
5171;SDS011;2605;49.770;9.868;2023-07-24T00:25:22;5.00;;;4.43;;
5171;SDS011;2605;49.770;9.868;2023-07-24T00:27:47;4.80;;;4.40;;
5171;SDS011;2605;49.770;9.868;2023-07-24T00:30:13;4.53;;;4.13;;
5171;SDS011;2605;49.770;9.868;2023-07-24T00:32:38;5.87;;;4.43;;
5171;SDS011;2605;49.770;9.868;2023-07-24T00:35:04;5.60;;;4.83;;
5171;SDS011;2605;49.770;9.868;2023-07-24T00:37:30;4.97;;;4.23;;
5171;SDS011;2605;49.770;9.868;2023-07-24T00:39:55;6.70;;;4.40;;
5171;SDS011;2605;49.770;9.868;2023-07-24T00:42:21;5.20;;;4.70;;
5171;SDS011;2605;49.770;9.868;2023-07-24T00:44:46;4.90;;;4.40;;
5171;SDS011;2605;49.770;9.868;2023-07-24T00:47:12;5.20;;;4.67;;
5171;SDS011;2605;49.770;9.868;2023-07-24T00:49:38;9.47;;;5.10;;
5171;SDS011;2605;49.770;9.868;2023-07-24T00:52:04;6.53;;;4.47;;
5171;SDS011;2605;49.770;9.868;2023-07-24T00:54:30;5.63;;;4.80;;
5171;SDS011;2605;49.770;9.868;2023-07-24T00:56:57;8.23;;;5.20;;
5171;SDS011;2605;49.770;9.868;2023-07-24T00:59:23;5.63;;;5.07;;
5171;SDS011;2605;49.770;9.868;2023-07-24T01:01:48;12.53;;;5.23;;
5171;SDS011;2605;49.770;9.868;2023-07-24T01:04:14;7.10;;;4.53;;
5171;SDS011;2605;49.770;9.868;2023-07-24T01:06:40;11.60;;;5.87;;
5171;SDS011;2605;49.770;9.868;2023-07-24T01:09:05;6.70;;;4.63;;
5171;SDS011;2605;49.770;9.868;2023-07-24T01:11:41;6.37;;;5.30;;
5171;SDS011;2605;49.770;9.868;2023-07-24T01:14:23;7.23;;;5.30;;
5171;SDS011;2605;49.770;9.868;2023-07-24T01:16:59;6.43;;;5.60;;
5171;SDS011;2605;49.770;9.868;2023-07-24T01:19:33;9.03;;;5.67;;
5171;SDS011;2605;49.770;9.868;2023-07-24T01:22:10;5.43;;;4.60;;
5171;SDS011;2605;49.770;9.868;2023-07-24T01:24:52;8.67;;;5.50;;
5171;SDS011;2605;49.770;9.868;2023-07-24T01:27:47;7.73;;;5.60;;
5171;SDS011;2605;49.770;9.868;2023-07-24T01:30:16;7.43;;;4.93;;
5171;SDS011;2605;49.770;9.868;2023-07-24T01:32:43;7.27;;;5.80;;
5171;SDS011;2605;49.770;9.868;2023-07-24T01:35:08;5.67;;;5.17;;
5171;SDS011;2605;49.770;9.868;2023-07-24T01:37:34;7.90;;;5.40;;
5171;SDS011;2605;49.770;9.868;2023-07-24T01:40:00;8.70;;;5.47;;
5171;SDS011;2605;49.770;9.868;2023-07-24T01:42:27;5.83;;;5.00;;
5171;SDS011;2605;49.770;9.868;2023-07-24T01:44:54;5.70;;;5.10;;
5171;SDS011;2605;49.770;9.868;2023-07-24T01:47:20;5.70;;;5.03;;
5171;SDS011;2605;49.770;9.868;2023-07-24T01:49:46;10.33;;;6.00;;
5171;SDS011;2605;49.770;9.868;2023-07-24T01:52:12;7.13;;;5.80;;
5171;SDS011;2605;49.770;9.868;2023-07-24T01:54:38;5.63;;;5.10;;
5171;SDS011;2605;49.770;9.868;2023-07-24T01:57:04;10.00;;;5.77;;
5171;SDS011;2605;49.770;9.868;2023-07-24T01:59:29;6.40;;;5.50;;
5171;SDS011;2605;49.770;9.868;2023-07-24T02:01:55;7.30;;;6.07;;
5171;SDS011;2605;49.770;9.868;2023-07-24T02:04:23;7.80;;;5.50;;
5171;SDS011;2605;49.770;9.868;2023-07-24T02:06:48;6.83;;;5.50;;
5171;SDS011;2605;49.770;9.868;2023-07-24T02:09:14;6.50;;;5.47;;
5171;SDS011;2605;49.770;9.868;2023-07-24T02:11:44;7.10;;;5.40;;
5171;SDS011;2605;49.770;9.868;2023-07-24T02:14:10;8.30;;;6.20;;
5171;SDS011;2605;49.770;9.868;2023-07-24T02:16:36;6.70;;;5.83;;
5171;SDS011;2605;49.770;9.868;2023-07-24T02:19:02;6.90;;;6.17;;
5171;SDS011;2605;49.770;9.868;2023-07-24T02:21:27;5.90;;;4.30;;
5171;SDS011;2605;49.770;9.868;2023-07-24T02:23:53;9.80;;;6.47;;
5171;SDS011;2605;49.770;9.868;2023-07-24T02:26:19;5.23;;;4.73;;
5171;SDS011;2605;49.770;9.868;2023-07-24T02:28:44;7.03;;;5.10;;
5171;SDS011;2605;49.770;9.868;2023-07-24T02:31:12;7.23;;;5.30;;
5171;SDS011;2605;49.770;9.868;2023-07-24T02:33:38;8.67;;;5.77;;
5171;SDS011;2605;49.770;9.868;2023-07-24T02:36:06;6.90;;;5.37;;
5171;SDS011;2605;49.770;9.868;2023-07-24T02:38:32;8.40;;;5.80;;
5171;SDS011;2605;49.770;9.868;2023-07-24T02:40:57;7.80;;;6.27;;
5171;SDS011;2605;49.770;9.868;2023-07-24T02:43:23;7.47;;;5.50;;
5171;SDS011;2605;49.770;9.868;2023-07-24T02:45:48;8.23;;;5.77;;
5171;SDS011;2605;49.770;9.868;2023-07-24T02:48:17;6.63;;;5.43;;
5171;SDS011;2605;49.770;9.868;2023-07-24T02:50:43;10.20;;;6.07;;
5171;SDS011;2605;49.770;9.868;2023-07-24T02:53:08;7.63;;;5.77;;
5171;SDS011;2605;49.770;9.868;2023-07-24T02:55:34;8.67;;;6.43;;
5171;SDS011;2605;49.770;9.868;2023-07-24T02:57:59;8.23;;;5.87;;
5171;SDS011;2605;49.770;9.868;2023-07-24T03:00:25;7.53;;;6.13;;
5171;SDS011;2605;49.770;9.868;2023-07-24T03:02:50;7.83;;;6.43;;
5171;SDS011;2605;49.770;9.868;2023-07-24T03:05:17;8.10;;;6.60;;
5171;SDS011;2605;49.770;9.868;2023-07-24T03:07:43;7.33;;;5.53;;
5171;SDS011;2605;49.770;9.868;2023-07-24T03:10:08;9.17;;;6.60;;
5171;SDS011;2605;49.770;9.868;2023-07-24T03:12:34;7.33;;;5.80;;
5171;SDS011;2605;49.770;9.868;2023-07-24T03:15:00;7.63;;;6.17;;
5171;SDS011;2605;49.770;9.868;2023-07-24T03:17:25;9.03;;;6.63;;
5171;SDS011;2605;49.770;9.868;2023-07-24T03:19:54;7.40;;;5.33;;
5171;SDS011;2605;49.770;9.868;2023-07-24T03:22:20;7.37;;;6.40;;
5171;SDS011;2605;49.770;9.868;2023-07-24T03:24:48;7.57;;;5.50;;
5171;SDS011;2605;49.770;9.868;2023-07-24T03:27:14;7.53;;;6.43;;
5171;SDS011;2605;49.770;9.868;2023-07-24T03:29:39;7.70;;;6.80;;
5171;SDS011;2605;49.770;9.868;2023-07-24T03:32:06;8.03;;;6.10;;
5171;SDS011;2605;49.770;9.868;2023-07-24T03:34:32;7.40;;;6.13;;
5171;SDS011;2605;49.770;9.868;2023-07-24T03:36:57;6.67;;;5.90;;
5171;SDS011;2605;49.770;9.868;2023-07-24T03:39:23;7.30;;;5.90;;
5171;SDS011;2605;49.770;9.868;2023-07-24T03:41:48;9.03;;;5.40;;
5171;SDS011;2605;49.770;9.868;2023-07-24T03:44:14;6.67;;;5.97;;
5171;SDS011;2605;49.770;9.868;2023-07-24T03:46:39;7.23;;;5.60;;
5171;SDS011;2605;49.770;9.868;2023-07-24T03:49:05;7.40;;;5.77;;
5171;SDS011;2605;49.770;9.868;2023-07-24T03:51:30;7.57;;;5.67;;
5171;SDS011;2605;49.770;9.868;2023-07-24T03:53:58;7.50;;;6.10;;
5171;SDS011;2605;49.770;9.868;2023-07-24T03:56:23;8.20;;;6.87;;
5171;SDS011;2605;49.770;9.868;2023-07-24T03:58:49;7.30;;;6.17;;
5171;SDS011;2605;49.770;9.868;2023-07-24T04:01:14;8.83;;;6.03;;
5171;SDS011;2605;49.770;9.868;2023-07-24T04:03:40;7.27;;;6.03;;
5171;SDS011;2605;49.770;9.868;2023-07-24T04:06:05;7.20;;;6.27;;
5171;SDS011;2605;49.770;9.868;2023-07-24T04:08:31;6.90;;;5.87;;
5171;SDS011;2605;49.770;9.868;2023-07-24T04:10:56;9.07;;;6.17;;
5171;SDS011;2605;49.770;9.868;2023-07-24T04:13:22;6.47;;;5.83;;
5171;SDS011;2605;49.770;9.868;2023-07-24T04:15:47;10.83;;;6.93;;
5171;SDS011;2605;49.770;9.868;2023-07-24T04:18:13;7.57;;;6.07;;
5171;SDS011;2605;49.770;9.868;2023-07-24T04:20:39;7.47;;;6.00;;
5171;SDS011;2605;49.770;9.868;2023-07-24T04:23:04;6.23;;;5.60;;
5171;SDS011;2605;49.770;9.868;2023-07-24T04:25:30;8.23;;;6.27;;
5171;SDS011;2605;49.770;9.868;2023-07-24T04:27:55;7.33;;;6.47;;
5171;SDS011;2605;49.770;9.868;2023-07-24T04:30:21;8.47;;;6.00;;
5171;SDS011;2605;49.770;9.868;2023-07-24T04:32:46;8.70;;;6.30;;
5171;SDS011;2605;49.770;9.868;2023-07-24T04:35:12;9.20;;;6.20;;
5171;SDS011;2605;49.770;9.868;2023-07-24T04:37:37;8.53;;;6.00;;
5171;SDS011;2605;49.770;9.868;2023-07-24T04:40:03;9.20;;;6.60;;
5171;SDS011;2605;49.770;9.868;2023-07-24T04:42:29;10.17;;;7.90;;
5171;SDS011;2605;49.770;9.868;2023-07-24T04:44:55;8.43;;;6.03;;
5171;SDS011;2605;49.770;9.868;2023-07-24T04:47:20;8.37;;;6.70;;
5171;SDS011;2605;49.770;9.868;2023-07-24T04:49:46;8.10;;;7.03;;
5171;SDS011;2605;49.770;9.868;2023-07-24T04:52:11;7.90;;;6.90;;
5171;SDS011;2605;49.770;9.868;2023-07-24T04:54:37;11.03;;;6.30;;
5171;SDS011;2605;49.770;9.868;2023-07-24T04:57:02;7.40;;;6.37;;
5171;SDS011;2605;49.770;9.868;2023-07-24T04:59:28;9.10;;;7.13;;
5171;SDS011;2605;49.770;9.868;2023-07-24T05:01:53;10.10;;;7.00;;
5171;SDS011;2605;49.770;9.868;2023-07-24T05:04:22;6.90;;;6.20;;
5171;SDS011;2605;49.770;9.868;2023-07-24T05:06:48;8.03;;;6.37;;
5171;SDS011;2605;49.770;9.868;2023-07-24T05:09:13;8.27;;;6.57;;
5171;SDS011;2605;49.770;9.868;2023-07-24T05:11:39;9.43;;;7.33;;
5171;SDS011;2605;49.770;9.868;2023-07-24T05:14:05;8.23;;;6.60;;
5171;SDS011;2605;49.770;9.868;2023-07-24T05:16:30;9.00;;;7.33;;
5171;SDS011;2605;49.770;9.868;2023-07-24T05:18:56;7.43;;;6.70;;
5171;SDS011;2605;49.770;9.868;2023-07-24T05:21:21;7.43;;;6.43;;
5171;SDS011;2605;49.770;9.868;2023-07-24T05:23:47;8.70;;;6.57;;
5171;SDS011;2605;49.770;9.868;2023-07-24T05:26:12;10.77;;;7.10;;
5171;SDS011;2605;49.770;9.868;2023-07-24T05:28:38;7.63;;;6.90;;
5171;SDS011;2605;49.770;9.868;2023-07-24T05:31:04;9.60;;;7.90;;
5171;SDS011;2605;49.770;9.868;2023-07-24T05:33:30;7.83;;;6.40;;
5171;SDS011;2605;49.770;9.868;2023-07-24T05:35:59;8.53;;;7.40;;
5171;SDS011;2605;49.770;9.868;2023-07-24T05:38:26;9.90;;;7.40;;
5171;SDS011;2605;49.770;9.868;2023-07-24T05:40:58;9.80;;;8.40;;
5171;SDS011;2605;49.770;9.868;2023-07-24T05:43:25;7.40;;;6.67;;
5171;SDS011;2605;49.770;9.868;2023-07-24T05:45:52;11.53;;;7.87;;
5171;SDS011;2605;49.770;9.868;2023-07-24T05:48:19;8.50;;;6.80;;
5171;SDS011;2605;49.770;9.868;2023-07-24T05:50:45;8.27;;;7.37;;
5171;SDS011;2605;49.770;9.868;2023-07-24T05:53:11;8.50;;;6.90;;
5171;SDS011;2605;49.770;9.868;2023-07-24T05:55:36;11.60;;;10.50;;
5171;SDS011;2605;49.770;9.868;2023-07-24T05:58:02;11.87;;;8.70;;
5171;SDS011;2605;49.770;9.868;2023-07-24T06:00:27;16.33;;;8.90;;
5171;SDS011;2605;49.770;9.868;2023-07-24T06:02:56;9.53;;;8.10;;
5171;SDS011;2605;49.770;9.868;2023-07-24T06:05:21;13.50;;;8.63;;
5171;SDS011;2605;49.770;9.868;2023-07-24T06:07:47;15.67;;;8.60;;
5171;SDS011;2605;49.770;9.868;2023-07-24T06:10:12;9.70;;;7.47;;
5171;SDS011;2605;49.770;9.868;2023-07-24T06:12:38;19.63;;;10.53;;
5171;SDS011;2605;49.770;9.868;2023-07-24T06:15:04;11.70;;;9.93;;
5171;SDS011;2605;49.770;9.868;2023-07-24T06:17:30;15.27;;;10.60;;
5171;SDS011;2605;49.770;9.868;2023-07-24T06:19:56;13.67;;;8.43;;
5171;SDS011;2605;49.770;9.868;2023-07-24T06:22:21;7.73;;;6.83;;
5171;SDS011;2605;49.770;9.868;2023-07-24T06:24:47;14.07;;;7.20;;
5171;SDS011;2605;49.770;9.868;2023-07-24T06:27:13;10.80;;;6.83;;
5171;SDS011;2605;49.770;9.868;2023-07-24T06:29:38;12.23;;;8.83;;
5171;SDS011;2605;49.770;9.868;2023-07-24T06:32:04;12.13;;;6.57;;
5171;SDS011;2605;49.770;9.868;2023-07-24T06:34:30;10.03;;;7.40;;
5171;SDS011;2605;49.770;9.868;2023-07-24T06:36:55;9.70;;;7.50;;
5171;SDS011;2605;49.770;9.868;2023-07-24T06:39:21;8.10;;;7.10;;
5171;SDS011;2605;49.770;9.868;2023-07-24T06:41:47;8.67;;;7.73;;
5171;SDS011;2605;49.770;9.868;2023-07-24T06:44:12;10.13;;;7.07;;
5171;SDS011;2605;49.770;9.868;2023-07-24T06:46:37;11.33;;;8.13;;
5171;SDS011;2605;49.770;9.868;2023-07-24T06:49:03;10.30;;;7.30;;
5171;SDS011;2605;49.770;9.868;2023-07-24T06:51:28;7.77;;;7.03;;
5171;SDS011;2605;49.770;9.868;2023-07-24T06:53:54;12.07;;;7.33;;
5171;SDS011;2605;49.770;9.868;2023-07-24T06:56:19;9.60;;;7.47;;
5171;SDS011;2605;49.770;9.868;2023-07-24T06:58:45;7.50;;;6.70;;
5171;SDS011;2605;49.770;9.868;2023-07-24T07:01:10;9.17;;;7.17;;
5171;SDS011;2605;49.770;9.868;2023-07-24T07:03:36;8.67;;;7.07;;
5171;SDS011;2605;49.770;9.868;2023-07-24T07:06:02;8.47;;;7.57;;
5171;SDS011;2605;49.770;9.868;2023-07-24T07:08:28;8.80;;;7.50;;
5171;SDS011;2605;49.770;9.868;2023-07-24T07:10:57;8.67;;;7.73;;
5171;SDS011;2605;49.770;9.868;2023-07-24T07:13:24;10.03;;;7.20;;
5171;SDS011;2605;49.770;9.868;2023-07-24T07:15:49;14.20;;;8.63;;
5171;SDS011;2605;49.770;9.868;2023-07-24T07:18:15;8.70;;;7.57;;
5171;SDS011;2605;49.770;9.868;2023-07-24T07:20:50;8.63;;;7.30;;
5171;SDS011;2605;49.770;9.868;2023-07-24T07:23:17;7.70;;;6.87;;
5171;SDS011;2605;49.770;9.868;2023-07-24T07:25:44;8.13;;;7.33;;
5171;SDS011;2605;49.770;9.868;2023-07-24T07:28:13;9.70;;;7.77;;
5171;SDS011;2605;49.770;9.868;2023-07-24T07:30:42;8.13;;;7.33;;
5171;SDS011;2605;49.770;9.868;2023-07-24T07:33:08;9.97;;;6.67;;
5171;SDS011;2605;49.770;9.868;2023-07-24T07:35:35;7.90;;;7.10;;
5171;SDS011;2605;49.770;9.868;2023-07-24T07:38:01;10.13;;;7.77;;
5171;SDS011;2605;49.770;9.868;2023-07-24T07:40:28;9.60;;;6.93;;
5171;SDS011;2605;49.770;9.868;2023-07-24T07:42:53;9.30;;;7.43;;
5171;SDS011;2605;49.770;9.868;2023-07-24T07:45:20;10.70;;;8.17;;
5171;SDS011;2605;49.770;9.868;2023-07-24T07:47:46;9.90;;;7.90;;
5171;SDS011;2605;49.770;9.868;2023-07-24T07:50:11;12.40;;;7.17;;
5171;SDS011;2605;49.770;9.868;2023-07-24T07:52:37;9.30;;;7.93;;
5171;SDS011;2605;49.770;9.868;2023-07-24T07:55:03;10.20;;;6.77;;
5171;SDS011;2605;49.770;9.868;2023-07-24T07:57:31;8.30;;;7.27;;
5171;SDS011;2605;49.770;9.868;2023-07-24T07:59:58;8.80;;;7.80;;
5171;SDS011;2605;49.770;9.868;2023-07-24T08:02:24;10.47;;;7.93;;
5171;SDS011;2605;49.770;9.868;2023-07-24T08:04:49;9.13;;;6.50;;
5171;SDS011;2605;49.770;9.868;2023-07-24T08:07:15;10.50;;;7.97;;
5171;SDS011;2605;49.770;9.868;2023-07-24T08:09:40;9.83;;;7.97;;
5171;SDS011;2605;49.770;9.868;2023-07-24T08:12:06;8.07;;;7.13;;
5171;SDS011;2605;49.770;9.868;2023-07-24T08:14:32;10.73;;;7.90;;
5171;SDS011;2605;49.770;9.868;2023-07-24T08:17:00;10.00;;;7.60;;
5171;SDS011;2605;49.770;9.868;2023-07-24T08:19:29;8.80;;;7.53;;
5171;SDS011;2605;49.770;9.868;2023-07-24T08:21:54;8.80;;;7.17;;
5171;SDS011;2605;49.770;9.868;2023-07-24T08:24:20;8.07;;;7.27;;
5171;SDS011;2605;49.770;9.868;2023-07-24T08:26:45;8.60;;;7.70;;
5171;SDS011;2605;49.770;9.868;2023-07-24T08:29:11;9.70;;;7.70;;
5171;SDS011;2605;49.770;9.868;2023-07-24T08:31:37;8.87;;;7.87;;
5171;SDS011;2605;49.770;9.868;2023-07-24T08:34:03;12.50;;;9.47;;
5171;SDS011;2605;49.770;9.868;2023-07-24T08:36:28;11.03;;;8.23;;
5171;SDS011;2605;49.770;9.868;2023-07-24T08:38:54;10.60;;;8.50;;
5171;SDS011;2605;49.770;9.868;2023-07-24T08:41:20;9.13;;;7.20;;
5171;SDS011;2605;49.770;9.868;2023-07-24T08:43:45;9.53;;;8.10;;
5171;SDS011;2605;49.770;9.868;2023-07-24T08:46:11;10.33;;;8.20;;
5171;SDS011;2605;49.770;9.868;2023-07-24T08:48:40;12.83;;;8.10;;
5171;SDS011;2605;49.770;9.868;2023-07-24T08:51:14;9.70;;;7.60;;
5171;SDS011;2605;49.770;9.868;2023-07-24T08:53:42;8.67;;;7.70;;
5171;SDS011;2605;49.770;9.868;2023-07-24T08:56:09;9.37;;;7.07;;
5171;SDS011;2605;49.770;9.868;2023-07-24T08:58:37;7.67;;;6.83;;
5171;SDS011;2605;49.770;9.868;2023-07-24T09:01:04;11.63;;;7.90;;
5171;SDS011;2605;49.770;9.868;2023-07-24T09:03:30;9.83;;;7.50;;
5171;SDS011;2605;49.770;9.868;2023-07-24T09:05:56;9.43;;;7.40;;
5171;SDS011;2605;49.770;9.868;2023-07-24T09:08:31;7.93;;;7.20;;
5171;SDS011;2605;49.770;9.868;2023-07-24T09:10:58;12.27;;;7.57;;
5171;SDS011;2605;49.770;9.868;2023-07-24T09:13:24;10.50;;;7.77;;
5171;SDS011;2605;49.770;9.868;2023-07-24T09:15:50;10.90;;;7.30;;
5171;SDS011;2605;49.770;9.868;2023-07-24T09:18:16;9.37;;;7.50;;
5171;SDS011;2605;49.770;9.868;2023-07-24T09:20:43;7.33;;;6.53;;
5171;SDS011;2605;49.770;9.868;2023-07-24T09:23:09;9.73;;;8.57;;
5171;SDS011;2605;49.770;9.868;2023-07-24T09:25:39;10.13;;;8.47;;
5171;SDS011;2605;49.770;9.868;2023-07-24T09:28:10;10.00;;;6.90;;
5171;SDS011;2605;49.770;9.868;2023-07-24T09:30:41;7.60;;;6.87;;
5171;SDS011;2605;49.770;9.868;2023-07-24T09:33:15;9.70;;;7.57;;
5171;SDS011;2605;49.770;9.868;2023-07-24T09:35:41;8.40;;;7.47;;
5171;SDS011;2605;49.770;9.868;2023-07-24T09:38:07;9.00;;;8.03;;
5171;SDS011;2605;49.770;9.868;2023-07-24T09:40:45;8.57;;;7.70;;
5171;SDS011;2605;49.770;9.868;2023-07-24T09:43:15;10.27;;;7.43;;
5171;SDS011;2605;49.770;9.868;2023-07-24T09:45:41;9.80;;;8.13;;
5171;SDS011;2605;49.770;9.868;2023-07-24T09:48:08;15.43;;;8.20;;
5171;SDS011;2605;49.770;9.868;2023-07-24T09:50:36;8.47;;;7.63;;
5171;SDS011;2605;49.770;9.868;2023-07-24T09:53:06;9.80;;;7.67;;
5171;SDS011;2605;49.770;9.868;2023-07-24T09:55:43;8.60;;;7.80;;
5171;SDS011;2605;49.770;9.868;2023-07-24T09:58:20;9.63;;;8.20;;
5171;SDS011;2605;49.770;9.868;2023-07-24T10:00:46;10.13;;;7.37;;
5171;SDS011;2605;49.770;9.868;2023-07-24T10:03:14;7.77;;;6.70;;
5171;SDS011;2605;49.770;9.868;2023-07-24T10:05:41;9.50;;;8.50;;
5171;SDS011;2605;49.770;9.868;2023-07-24T10:08:10;8.90;;;8.10;;
5171;SDS011;2605;49.770;9.868;2023-07-24T10:10:36;7.90;;;7.20;;
5171;SDS011;2605;49.770;9.868;2023-07-24T10:13:03;9.03;;;7.10;;
5171;SDS011;2605;49.770;9.868;2023-07-24T10:15:29;9.43;;;7.77;;
5171;SDS011;2605;49.770;9.868;2023-07-24T10:18:02;9.33;;;7.30;;
5171;SDS011;2605;49.770;9.868;2023-07-24T10:20:35;7.83;;;5.90;;
5171;SDS011;2605;49.770;9.868;2023-07-24T10:23:03;9.43;;;7.47;;
5171;SDS011;2605;49.770;9.868;2023-07-24T10:25:30;8.60;;;7.10;;
5171;SDS011;2605;49.770;9.868;2023-07-24T10:28:03;8.80;;;7.83;;
5171;SDS011;2605;49.770;9.868;2023-07-24T10:30:32;7.93;;;7.13;;
5171;SDS011;2605;49.770;9.868;2023-07-24T10:33:03;7.90;;;6.77;;
5171;SDS011;2605;49.770;9.868;2023-07-24T10:35:53;8.10;;;6.67;;
5171;SDS011;2605;49.770;9.868;2023-07-24T10:38:19;8.20;;;7.37;;
5171;SDS011;2605;49.770;9.868;2023-07-24T10:40:45;11.10;;;8.60;;
5171;SDS011;2605;49.770;9.868;2023-07-24T10:43:13;9.60;;;8.23;;
5171;SDS011;2605;49.770;9.868;2023-07-24T10:45:48;11.03;;;7.37;;
5171;SDS011;2605;49.770;9.868;2023-07-24T10:48:20;8.03;;;7.20;;
5171;SDS011;2605;49.770;9.868;2023-07-24T10:50:47;9.40;;;7.10;;
5171;SDS011;2605;49.770;9.868;2023-07-24T10:53:15;8.77;;;7.70;;
5171;SDS011;2605;49.770;9.868;2023-07-24T10:55:43;8.83;;;7.90;;
5171;SDS011;2605;49.770;9.868;2023-07-24T10:58:09;8.07;;;7.27;;
5171;SDS011;2605;49.770;9.868;2023-07-24T11:00:36;8.67;;;7.83;;
5171;SDS011;2605;49.770;9.868;2023-07-24T11:03:04;9.30;;;6.50;;
5171;SDS011;2605;49.770;9.868;2023-07-24T11:05:30;7.67;;;6.90;;
5171;SDS011;2605;49.770;9.868;2023-07-24T11:07:56;8.83;;;8.00;;
5171;SDS011;2605;49.770;9.868;2023-07-24T11:10:22;7.47;;;6.60;;
5171;SDS011;2605;49.770;9.868;2023-07-24T11:12:48;11.13;;;7.03;;
5171;SDS011;2605;49.770;9.868;2023-07-24T11:15:16;6.77;;;6.13;;
5171;SDS011;2605;49.770;9.868;2023-07-24T11:17:49;13.87;;;7.63;;
5171;SDS011;2605;49.770;9.868;2023-07-24T11:20:16;8.30;;;5.97;;
5171;SDS011;2605;49.770;9.868;2023-07-24T11:22:42;13.50;;;8.90;;
5171;SDS011;2605;49.770;9.868;2023-07-24T11:25:09;11.07;;;7.50;;
5171;SDS011;2605;49.770;9.868;2023-07-24T11:27:42;8.07;;;6.87;;
5171;SDS011;2605;49.770;9.868;2023-07-24T11:30:09;9.10;;;7.63;;
5171;SDS011;2605;49.770;9.868;2023-07-24T11:32:37;8.50;;;7.67;;
5171;SDS011;2605;49.770;9.868;2023-07-24T11:35:04;8.93;;;6.93;;
5171;SDS011;2605;49.770;9.868;2023-07-24T11:37:30;9.27;;;8.10;;
5171;SDS011;2605;49.770;9.868;2023-07-24T11:39:59;10.70;;;8.90;;
5171;SDS011;2605;49.770;9.868;2023-07-24T11:42:33;7.57;;;6.87;;
5171;SDS011;2605;49.770;9.868;2023-07-24T11:45:02;7.67;;;6.83;;
5171;SDS011;2605;49.770;9.868;2023-07-24T11:47:28;10.73;;;7.33;;
5171;SDS011;2605;49.770;9.868;2023-07-24T11:49:59;9.57;;;7.30;;
5171;SDS011;2605;49.770;9.868;2023-07-24T11:52:25;8.37;;;7.57;;
5171;SDS011;2605;49.770;9.868;2023-07-24T11:54:57;14.10;;;7.17;;
5171;SDS011;2605;49.770;9.868;2023-07-24T11:57:26;7.97;;;7.17;;
5171;SDS011;2605;49.770;9.868;2023-07-24T11:59:52;9.10;;;7.20;;
5171;SDS011;2605;49.770;9.868;2023-07-24T12:02:18;8.37;;;7.13;;
5171;SDS011;2605;49.770;9.868;2023-07-24T12:04:44;8.97;;;7.97;;
5171;SDS011;2605;49.770;9.868;2023-07-24T12:07:10;7.57;;;6.70;;
5171;SDS011;2605;49.770;9.868;2023-07-24T12:09:35;7.17;;;6.20;;
5171;SDS011;2605;49.770;9.868;2023-07-24T12:12:02;8.30;;;7.60;;
5171;SDS011;2605;49.770;9.868;2023-07-24T12:14:29;8.40;;;7.47;;
5171;SDS011;2605;49.770;9.868;2023-07-24T12:17:03;9.63;;;8.13;;
5171;SDS011;2605;49.770;9.868;2023-07-24T12:19:34;8.73;;;7.83;;
5171;SDS011;2605;49.770;9.868;2023-07-24T12:22:01;8.27;;;6.70;;
5171;SDS011;2605;49.770;9.868;2023-07-24T12:24:29;8.50;;;7.70;;
5171;SDS011;2605;49.770;9.868;2023-07-24T12:26:54;7.47;;;6.77;;
5171;SDS011;2605;49.770;9.868;2023-07-24T12:29:20;8.43;;;7.53;;
5171;SDS011;2605;49.770;9.868;2023-07-24T12:31:45;9.27;;;8.37;;
5171;SDS011;2605;49.770;9.868;2023-07-24T12:34:11;8.83;;;7.93;;
5171;SDS011;2605;49.770;9.868;2023-07-24T12:36:36;10.90;;;8.03;;
5171;SDS011;2605;49.770;9.868;2023-07-24T12:39:02;13.40;;;7.90;;
5171;SDS011;2605;49.770;9.868;2023-07-24T12:41:27;7.80;;;7.00;;
5171;SDS011;2605;49.770;9.868;2023-07-24T12:43:53;8.10;;;7.30;;
5171;SDS011;2605;49.770;9.868;2023-07-24T12:46:18;9.90;;;6.83;;
5171;SDS011;2605;49.770;9.868;2023-07-24T12:48:44;8.30;;;7.10;;
5171;SDS011;2605;49.770;9.868;2023-07-24T12:51:09;9.80;;;6.87;;
5171;SDS011;2605;49.770;9.868;2023-07-24T12:53:35;8.20;;;7.40;;
5171;SDS011;2605;49.770;9.868;2023-07-24T12:56:00;10.57;;;7.10;;
5171;SDS011;2605;49.770;9.868;2023-07-24T12:58:25;11.10;;;7.47;;
5171;SDS011;2605;49.770;9.868;2023-07-24T13:00:51;7.77;;;6.20;;
5171;SDS011;2605;49.770;9.868;2023-07-24T13:03:16;10.60;;;6.90;;
5171;SDS011;2605;49.770;9.868;2023-07-24T13:05:42;8.63;;;7.30;;
5171;SDS011;2605;49.770;9.868;2023-07-24T13:08:08;8.83;;;7.60;;
5171;SDS011;2605;49.770;9.868;2023-07-24T13:10:33;8.67;;;7.77;;
5171;SDS011;2605;49.770;9.868;2023-07-24T13:12:58;10.20;;;6.60;;
5171;SDS011;2605;49.770;9.868;2023-07-24T13:15:26;8.63;;;7.83;;
5171;SDS011;2605;49.770;9.868;2023-07-24T13:17:51;11.53;;;8.40;;
5171;SDS011;2605;49.770;9.868;2023-07-24T13:20:16;8.30;;;7.40;;
5171;SDS011;2605;49.770;9.868;2023-07-24T13:22:42;13.40;;;7.37;;
5171;SDS011;2605;49.770;9.868;2023-07-24T13:25:11;7.90;;;7.13;;
5171;SDS011;2605;49.770;9.868;2023-07-24T13:27:36;8.07;;;7.03;;
5171;SDS011;2605;49.770;9.868;2023-07-24T13:30:02;12.03;;;6.80;;
5171;SDS011;2605;49.770;9.868;2023-07-24T13:32:28;8.13;;;7.33;;
5171;SDS011;2605;49.770;9.868;2023-07-24T13:34:54;7.07;;;6.30;;
5171;SDS011;2605;49.770;9.868;2023-07-24T13:37:20;9.93;;;7.83;;
5171;SDS011;2605;49.770;9.868;2023-07-24T13:39:46;7.70;;;6.60;;
5171;SDS011;2605;49.770;9.868;2023-07-24T13:42:14;9.77;;;7.90;;
5171;SDS011;2605;49.770;9.868;2023-07-24T13:44:39;10.53;;;7.60;;
5171;SDS011;2605;49.770;9.868;2023-07-24T13:47:05;10.53;;;7.90;;
5171;SDS011;2605;49.770;9.868;2023-07-24T13:49:30;7.33;;;6.63;;
5171;SDS011;2605;49.770;9.868;2023-07-24T13:51:56;7.67;;;7.03;;
5171;SDS011;2605;49.770;9.868;2023-07-24T13:54:22;7.43;;;6.80;;
5171;SDS011;2605;49.770;9.868;2023-07-24T13:56:47;8.43;;;7.60;;
5171;SDS011;2605;49.770;9.868;2023-07-24T13:59:13;6.37;;;5.23;;
5171;SDS011;2605;49.770;9.868;2023-07-24T14:01:42;10.27;;;7.90;;
5171;SDS011;2605;49.770;9.868;2023-07-24T14:04:08;8.13;;;7.10;;
5171;SDS011;2605;49.770;9.868;2023-07-24T14:06:33;8.57;;;7.77;;
5171;SDS011;2605;49.770;9.868;2023-07-24T14:08:59;7.50;;;6.80;;
5171;SDS011;2605;49.770;9.868;2023-07-24T14:11:24;6.87;;;6.37;;
5171;SDS011;2605;49.770;9.868;2023-07-24T14:13:51;9.97;;;7.60;;
5171;SDS011;2605;49.770;9.868;2023-07-24T14:16:17;6.63;;;6.10;;
5171;SDS011;2605;49.770;9.868;2023-07-24T14:18:45;9.50;;;7.13;;
5171;SDS011;2605;49.770;9.868;2023-07-24T14:21:11;7.60;;;6.90;;
5171;SDS011;2605;49.770;9.868;2023-07-24T14:23:36;10.23;;;7.87;;
5171;SDS011;2605;49.770;9.868;2023-07-24T14:54:38;7.50;;;7.00;;
5171;SDS011;2605;49.770;9.868;2023-07-24T14:57:03;8.50;;;7.70;;
5171;SDS011;2605;49.770;9.868;2023-07-24T14:59:29;8.30;;;7.57;;
5171;SDS011;2605;49.770;9.868;2023-07-24T15:01:54;8.60;;;7.47;;
5171;SDS011;2605;49.770;9.868;2023-07-24T15:04:20;7.80;;;7.03;;
5171;SDS011;2605;49.770;9.868;2023-07-24T15:06:45;7.67;;;6.97;;
5171;SDS011;2605;49.770;9.868;2023-07-24T15:09:11;8.37;;;7.57;;
5171;SDS011;2605;49.770;9.868;2023-07-24T15:11:39;7.23;;;6.53;;
5171;SDS011;2605;49.770;9.868;2023-07-24T15:14:05;7.90;;;7.20;;
5171;SDS011;2605;49.770;9.868;2023-07-24T15:16:30;10.07;;;7.60;;
5171;SDS011;2605;49.770;9.868;2023-07-24T15:18:56;7.27;;;6.53;;
5171;SDS011;2605;49.770;9.868;2023-07-24T15:21:21;14.23;;;7.20;;
5171;SDS011;2605;49.770;9.868;2023-07-24T15:31:33;8.80;;;6.67;;
5171;SDS011;2605;49.770;9.868;2023-07-24T15:34:01;11.33;;;8.17;;
5171;SDS011;2605;49.770;9.868;2023-07-24T15:36:27;7.43;;;6.70;;
5171;SDS011;2605;49.770;9.868;2023-07-24T15:38:53;8.83;;;7.93;;
5171;SDS011;2605;49.770;9.868;2023-07-24T15:41:18;7.47;;;6.70;;
5171;SDS011;2605;49.770;9.868;2023-07-24T15:43:46;8.10;;;7.33;;
5171;SDS011;2605;49.770;9.868;2023-07-24T15:46:12;8.40;;;7.10;;